sensor_id;sensor_type;location;lat;lon;timestamp;P1;durP1;ratioP1;P2;durP2;ratioP2
25057;SDS011;13057;50.978;11.034;2022-10-16T00:01:32;1.33;;;1.00;;
25057;SDS011;13057;50.978;11.034;2022-10-16T00:03:59;1.00;;;0.75;;
25057;SDS011;13057;50.978;11.034;2022-10-16T00:06:26;0.88;;;0.50;;
25057;SDS011;13057;50.978;11.034;2022-10-16T00:08:53;1.00;;;0.80;;
25057;SDS011;13057;50.978;11.034;2022-10-16T00:11:21;1.35;;;0.80;;
25057;SDS011;13057;50.978;11.034;2022-10-16T00:13:48;0.90;;;0.70;;
25057;SDS011;13057;50.978;11.034;2022-10-16T00:16:16;0.70;;;0.50;;
25057;SDS011;13057;50.978;11.034;2022-10-16T00:18:42;1.27;;;1.00;;
25057;SDS011;13057;50.978;11.034;2022-10-16T00:21:12;1.88;;;0.88;;
25057;SDS011;13057;50.978;11.034;2022-10-16T00:23:40;0.87;;;0.77;;
25057;SDS011;13057;50.978;11.034;2022-10-16T00:26:07;1.45;;;0.90;;
25057;SDS011;13057;50.978;11.034;2022-10-16T00:28:36;2.03;;;0.82;;
25057;SDS011;13057;50.978;11.034;2022-10-16T00:31:03;1.00;;;0.80;;
25057;SDS011;13057;50.978;11.034;2022-10-16T00:33:30;3.15;;;0.80;;
25057;SDS011;13057;50.978;11.034;2022-10-16T00:35:58;1.38;;;1.00;;
25057;SDS011;13057;50.978;11.034;2022-10-16T00:38:24;3.00;;;0.93;;
25057;SDS011;13057;50.978;11.034;2022-10-16T00:40:50;1.20;;;1.00;;
25057;SDS011;13057;50.978;11.034;2022-10-16T00:46:02;1.25;;;0.88;;
25057;SDS011;13057;50.978;11.034;2022-10-16T00:48:31;2.45;;;0.80;;
25057;SDS011;13057;50.978;11.034;2022-10-16T00:50:57;1.48;;;0.77;;
25057;SDS011;13057;50.978;11.034;2022-10-16T00:53:24;3.88;;;0.95;;
25057;SDS011;13057;50.978;11.034;2022-10-16T00:55:51;1.27;;;0.80;;
25057;SDS011;13057;50.978;11.034;2022-10-16T00:58:17;1.42;;;1.00;;
25057;SDS011;13057;50.978;11.034;2022-10-16T01:00:43;1.25;;;0.75;;
25057;SDS011;13057;50.978;11.034;2022-10-16T01:06:02;1.52;;;1.00;;
25057;SDS011;13057;50.978;11.034;2022-10-16T01:08:45;0.80;;;0.70;;
25057;SDS011;13057;50.978;11.034;2022-10-16T01:11:27;1.02;;;0.73;;
25057;SDS011;13057;50.978;11.034;2022-10-16T01:14:02;1.17;;;0.77;;
25057;SDS011;13057;50.978;11.034;2022-10-16T01:16:39;3.63;;;0.90;;
25057;SDS011;13057;50.978;11.034;2022-10-16T01:19:17;2.38;;;1.70;;
25057;SDS011;13057;50.978;11.034;2022-10-16T01:21:57;2.03;;;1.60;;
25057;SDS011;13057;50.978;11.034;2022-10-16T01:24:28;4.13;;;2.15;;
25057;SDS011;13057;50.978;11.034;2022-10-16T01:27:07;5.53;;;2.95;;
25057;SDS011;13057;50.978;11.034;2022-10-16T01:29:41;2.60;;;1.50;;
25057;SDS011;13057;50.978;11.034;2022-10-16T01:32:17;2.20;;;1.05;;
25057;SDS011;13057;50.978;11.034;2022-10-16T01:34:52;3.05;;;0.85;;
25057;SDS011;13057;50.978;11.034;2022-10-16T01:37:29;1.17;;;0.82;;
25057;SDS011;13057;50.978;11.034;2022-10-16T01:40:04;0.88;;;0.70;;
25057;SDS011;13057;50.978;11.034;2022-10-16T01:42:35;1.30;;;1.00;;
25057;SDS011;13057;50.978;11.034;2022-10-16T01:45:08;3.30;;;1.15;;
25057;SDS011;13057;50.978;11.034;2022-10-16T01:47:38;2.58;;;1.30;;
25057;SDS011;13057;50.978;11.034;2022-10-16T01:50:05;2.22;;;1.02;;
25057;SDS011;13057;50.978;11.034;2022-10-16T01:52:34;3.60;;;1.25;;
25057;SDS011;13057;50.978;11.034;2022-10-16T01:55:04;2.10;;;1.50;;
25057;SDS011;13057;50.978;11.034;2022-10-16T01:57:32;4.97;;;1.40;;
25057;SDS011;13057;50.978;11.034;2022-10-16T02:00:03;1.27;;;0.82;;
25057;SDS011;13057;50.978;11.034;2022-10-16T02:02:32;1.40;;;0.80;;
25057;SDS011;13057;50.978;11.034;2022-10-16T02:05:03;0.80;;;0.70;;
25057;SDS011;13057;50.978;11.034;2022-10-16T02:07:35;1.15;;;0.80;;
25057;SDS011;13057;50.978;11.034;2022-10-16T02:10:00;0.82;;;0.70;;
25057;SDS011;13057;50.978;11.034;2022-10-16T02:12:28;0.70;;;0.60;;
25057;SDS011;13057;50.978;11.034;2022-10-16T02:14:57;0.80;;;0.60;;
25057;SDS011;13057;50.978;11.034;2022-10-16T02:17:23;1.70;;;1.20;;
25057;SDS011;13057;50.978;11.034;2022-10-16T02:19:50;2.30;;;1.40;;
25057;SDS011;13057;50.978;11.034;2022-10-16T02:22:21;2.75;;;1.30;;
25057;SDS011;13057;50.978;11.034;2022-10-16T02:24:57;1.73;;;1.08;;
25057;SDS011;13057;50.978;11.034;2022-10-16T02:27:31;1.10;;;0.90;;
25057;SDS011;13057;50.978;11.034;2022-10-16T02:30:06;3.13;;;0.90;;
25057;SDS011;13057;50.978;11.034;2022-10-16T02:32:38;1.83;;;1.02;;
25057;SDS011;13057;50.978;11.034;2022-10-16T02:35:07;1.50;;;0.80;;
25057;SDS011;13057;50.978;11.034;2022-10-16T02:37:34;2.85;;;2.25;;
25057;SDS011;13057;50.978;11.034;2022-10-16T02:40:00;1.60;;;0.88;;
25057;SDS011;13057;50.978;11.034;2022-10-16T02:42:31;1.42;;;0.85;;
25057;SDS011;13057;50.978;11.034;2022-10-16T02:45:00;1.83;;;1.00;;
25057;SDS011;13057;50.978;11.034;2022-10-16T02:47:26;1.23;;;1.00;;
25057;SDS011;13057;50.978;11.034;2022-10-16T02:49:52;1.48;;;1.00;;
25057;SDS011;13057;50.978;11.034;2022-10-16T02:52:18;1.00;;;0.90;;
25057;SDS011;13057;50.978;11.034;2022-10-16T02:54:44;2.22;;;1.30;;
25057;SDS011;13057;50.978;11.034;2022-10-16T02:57:10;1.83;;;1.10;;
25057;SDS011;13057;50.978;11.034;2022-10-16T02:59:36;1.02;;;0.70;;
25057;SDS011;13057;50.978;11.034;2022-10-16T03:02:02;1.80;;;0.65;;
25057;SDS011;13057;50.978;11.034;2022-10-16T03:04:28;1.00;;;0.90;;
25057;SDS011;13057;50.978;11.034;2022-10-16T03:06:54;1.17;;;0.90;;
25057;SDS011;13057;50.978;11.034;2022-10-16T03:09:20;1.48;;;0.85;;
25057;SDS011;13057;50.978;11.034;2022-10-16T03:11:46;3.17;;;0.90;;
25057;SDS011;13057;50.978;11.034;2022-10-16T03:14:11;2.25;;;0.77;;
25057;SDS011;13057;50.978;11.034;2022-10-16T03:16:37;1.27;;;1.10;;
25057;SDS011;13057;50.978;11.034;2022-10-16T03:19:03;1.25;;;0.90;;
25057;SDS011;13057;50.978;11.034;2022-10-16T03:21:29;1.00;;;0.80;;
25057;SDS011;13057;50.978;11.034;2022-10-16T03:23:55;1.30;;;0.90;;
25057;SDS011;13057;50.978;11.034;2022-10-16T03:26:20;4.00;;;0.98;;
25057;SDS011;13057;50.978;11.034;2022-10-16T03:28:46;1.42;;;1.20;;
25057;SDS011;13057;50.978;11.034;2022-10-16T03:31:12;0.93;;;0.82;;
25057;SDS011;13057;50.978;11.034;2022-10-16T03:33:38;1.20;;;0.90;;
25057;SDS011;13057;50.978;11.034;2022-10-16T03:36:04;1.50;;;0.90;;
25057;SDS011;13057;50.978;11.034;2022-10-16T03:38:30;1.25;;;0.90;;
25057;SDS011;13057;50.978;11.034;2022-10-16T03:40:56;1.45;;;0.70;;
25057;SDS011;13057;50.978;11.034;2022-10-16T03:43:21;0.93;;;0.70;;
25057;SDS011;13057;50.978;11.034;2022-10-16T03:45:47;1.35;;;0.80;;
25057;SDS011;13057;50.978;11.034;2022-10-16T03:48:15;0.95;;;0.80;;
25057;SDS011;13057;50.978;11.034;2022-10-16T03:50:41;1.35;;;0.70;;
25057;SDS011;13057;50.978;11.034;2022-10-16T03:53:07;2.10;;;0.90;;
25057;SDS011;13057;50.978;11.034;2022-10-16T03:55:32;1.80;;;0.93;;
25057;SDS011;13057;50.978;11.034;2022-10-16T03:57:59;1.95;;;0.80;;
25057;SDS011;13057;50.978;11.034;2022-10-16T04:00:25;1.27;;;0.77;;
25057;SDS011;13057;50.978;11.034;2022-10-16T04:02:52;1.27;;;0.70;;
25057;SDS011;13057;50.978;11.034;2022-10-16T04:05:17;2.80;;;0.90;;
25057;SDS011;13057;50.978;11.034;2022-10-16T04:07:43;1.15;;;0.70;;
25057;SDS011;13057;50.978;11.034;2022-10-16T04:10:09;1.13;;;0.90;;
25057;SDS011;13057;50.978;11.034;2022-10-16T04:12:35;1.20;;;0.90;;
25057;SDS011;13057;50.978;11.034;2022-10-16T04:15:01;1.52;;;0.75;;
25057;SDS011;13057;50.978;11.034;2022-10-16T04:17:27;1.52;;;0.98;;
25057;SDS011;13057;50.978;11.034;2022-10-16T04:19:53;1.73;;;1.10;;
25057;SDS011;13057;50.978;11.034;2022-10-16T04:22:18;2.28;;;1.10;;
25057;SDS011;13057;50.978;11.034;2022-10-16T04:24:44;1.75;;;1.15;;
25057;SDS011;13057;50.978;11.034;2022-10-16T04:27:10;5.93;;;4.65;;
25057;SDS011;13057;50.978;11.034;2022-10-16T04:29:36;9.43;;;7.60;;
25057;SDS011;13057;50.978;11.034;2022-10-16T04:32:01;7.57;;;4.93;;
25057;SDS011;13057;50.978;11.034;2022-10-16T04:34:27;2.45;;;2.00;;
25057;SDS011;13057;50.978;11.034;2022-10-16T04:36:53;1.75;;;1.10;;
25057;SDS011;13057;50.978;11.034;2022-10-16T04:39:20;1.00;;;0.90;;
25057;SDS011;13057;50.978;11.034;2022-10-16T04:41:45;1.33;;;0.77;;
25057;SDS011;13057;50.978;11.034;2022-10-16T04:44:11;1.27;;;0.90;;
25057;SDS011;13057;50.978;11.034;2022-10-16T04:46:37;2.67;;;0.85;;
25057;SDS011;13057;50.978;11.034;2022-10-16T04:49:03;2.08;;;1.00;;
25057;SDS011;13057;50.978;11.034;2022-10-16T04:51:29;1.30;;;1.20;;
25057;SDS011;13057;50.978;11.034;2022-10-16T04:53:54;1.45;;;1.00;;
25057;SDS011;13057;50.978;11.034;2022-10-16T04:56:20;2.88;;;0.90;;
25057;SDS011;13057;50.978;11.034;2022-10-16T04:58:46;1.77;;;1.30;;
25057;SDS011;13057;50.978;11.034;2022-10-16T05:01:13;2.45;;;1.17;;
25057;SDS011;13057;50.978;11.034;2022-10-16T05:03:39;2.25;;;1.00;;
25057;SDS011;13057;50.978;11.034;2022-10-16T05:06:05;3.55;;;1.70;;
25057;SDS011;13057;50.978;11.034;2022-10-16T05:08:31;1.63;;;1.08;;
25057;SDS011;13057;50.978;11.034;2022-10-16T05:10:57;1.30;;;1.02;;
25057;SDS011;13057;50.978;11.034;2022-10-16T05:13:23;2.00;;;0.93;;
25057;SDS011;13057;50.978;11.034;2022-10-16T05:15:49;1.75;;;1.10;;
25057;SDS011;13057;50.978;11.034;2022-10-16T05:18:15;4.45;;;2.60;;
25057;SDS011;13057;50.978;11.034;2022-10-16T05:20:42;1.45;;;0.90;;
25057;SDS011;13057;50.978;11.034;2022-10-16T05:23:08;1.23;;;0.80;;
25057;SDS011;13057;50.978;11.034;2022-10-16T05:25:35;1.10;;;0.70;;
25057;SDS011;13057;50.978;11.034;2022-10-16T05:28:01;2.00;;;1.50;;
25057;SDS011;13057;50.978;11.034;2022-10-16T05:30:28;3.00;;;1.13;;
25057;SDS011;13057;50.978;11.034;2022-10-16T05:32:54;2.85;;;1.08;;
25057;SDS011;13057;50.978;11.034;2022-10-16T05:35:20;1.55;;;0.90;;
25057;SDS011;13057;50.978;11.034;2022-10-16T05:37:46;2.17;;;1.20;;
25057;SDS011;13057;50.978;11.034;2022-10-16T05:40:13;2.00;;;1.17;;
25057;SDS011;13057;50.978;11.034;2022-10-16T05:42:40;3.38;;;1.10;;
25057;SDS011;13057;50.978;11.034;2022-10-16T05:45:06;2.05;;;1.00;;
25057;SDS011;13057;50.978;11.034;2022-10-16T05:47:34;2.47;;;1.20;;
25057;SDS011;13057;50.978;11.034;2022-10-16T05:50:00;1.75;;;1.15;;
25057;SDS011;13057;50.978;11.034;2022-10-16T05:52:26;1.98;;;1.20;;
25057;SDS011;13057;50.978;11.034;2022-10-16T05:54:52;1.85;;;1.17;;
25057;SDS011;13057;50.978;11.034;2022-10-16T05:57:18;5.68;;;1.13;;
25057;SDS011;13057;50.978;11.034;2022-10-16T05:59:44;2.63;;;1.20;;
25057;SDS011;13057;50.978;11.034;2022-10-16T06:02:12;2.83;;;1.20;;
25057;SDS011;13057;50.978;11.034;2022-10-16T06:04:38;5.38;;;1.40;;
25057;SDS011;13057;50.978;11.034;2022-10-16T06:07:04;2.78;;;1.70;;
25057;SDS011;13057;50.978;11.034;2022-10-16T06:09:30;1.33;;;1.10;;
25057;SDS011;13057;50.978;11.034;2022-10-16T06:11:56;3.83;;;1.45;;
25057;SDS011;13057;50.978;11.034;2022-10-16T06:14:22;1.60;;;1.20;;
25057;SDS011;13057;50.978;11.034;2022-10-16T06:16:47;1.67;;;1.30;;
25057;SDS011;13057;50.978;11.034;2022-10-16T06:19:14;1.38;;;1.15;;
25057;SDS011;13057;50.978;11.034;2022-10-16T06:21:41;3.05;;;1.50;;
25057;SDS011;13057;50.978;11.034;2022-10-16T06:24:07;1.40;;;1.20;;
25057;SDS011;13057;50.978;11.034;2022-10-16T06:26:33;1.55;;;0.93;;
25057;SDS011;13057;50.978;11.034;2022-10-16T06:28:59;1.33;;;1.00;;
25057;SDS011;13057;50.978;11.034;2022-10-16T06:31:25;3.35;;;1.30;;
25057;SDS011;13057;50.978;11.034;2022-10-16T06:33:54;1.77;;;1.10;;
25057;SDS011;13057;50.978;11.034;2022-10-16T06:36:21;2.75;;;0.80;;
25057;SDS011;13057;50.978;11.034;2022-10-16T06:38:47;1.23;;;0.90;;
25057;SDS011;13057;50.978;11.034;2022-10-16T06:41:14;1.85;;;1.10;;
25057;SDS011;13057;50.978;11.034;2022-10-16T06:43:42;1.27;;;0.80;;
25057;SDS011;13057;50.978;11.034;2022-10-16T06:46:10;0.90;;;0.73;;
25057;SDS011;13057;50.978;11.034;2022-10-16T06:48:37;0.85;;;0.80;;
25057;SDS011;13057;50.978;11.034;2022-10-16T06:51:05;0.57;;;0.57;;
25057;SDS011;13057;50.978;11.034;2022-10-16T06:53:35;0.60;;;0.60;;
25057;SDS011;13057;50.978;11.034;2022-10-16T06:56:08;0.75;;;0.55;;
25057;SDS011;13057;50.978;11.034;2022-10-16T06:58:35;1.20;;;0.80;;
25057;SDS011;13057;50.978;11.034;2022-10-16T07:01:02;0.70;;;0.50;;
25057;SDS011;13057;50.978;11.034;2022-10-16T07:03:28;0.98;;;0.60;;
25057;SDS011;13057;50.978;11.034;2022-10-16T07:05:53;0.70;;;0.55;;
25057;SDS011;13057;50.978;11.034;2022-10-16T07:08:19;1.73;;;0.80;;
25057;SDS011;13057;50.978;11.034;2022-10-16T07:10:45;0.82;;;0.60;;
25057;SDS011;13057;50.978;11.034;2022-10-16T07:13:11;0.60;;;0.40;;
25057;SDS011;13057;50.978;11.034;2022-10-16T07:15:39;1.00;;;0.60;;
25057;SDS011;13057;50.978;11.034;2022-10-16T07:18:06;0.63;;;0.30;;
25057;SDS011;13057;50.978;11.034;2022-10-16T07:20:32;1.10;;;0.50;;
25057;SDS011;13057;50.978;11.034;2022-10-16T07:22:58;0.52;;;0.40;;
25057;SDS011;13057;50.978;11.034;2022-10-16T07:25:24;0.88;;;0.50;;
25057;SDS011;13057;50.978;11.034;2022-10-16T07:27:50;0.75;;;0.57;;
25057;SDS011;13057;50.978;11.034;2022-10-16T07:30:15;0.98;;;0.50;;
25057;SDS011;13057;50.978;11.034;2022-10-16T07:32:41;0.75;;;0.60;;
25057;SDS011;13057;50.978;11.034;2022-10-16T07:35:07;1.00;;;0.52;;
25057;SDS011;13057;50.978;11.034;2022-10-16T07:37:33;1.00;;;0.63;;
25057;SDS011;13057;50.978;11.034;2022-10-16T07:39:59;1.85;;;0.43;;
25057;SDS011;13057;50.978;11.034;2022-10-16T07:42:26;1.80;;;0.60;;
25057;SDS011;13057;50.978;11.034;2022-10-16T07:44:54;0.73;;;0.40;;
25057;SDS011;13057;50.978;11.034;2022-10-16T07:47:19;0.85;;;0.43;;
25057;SDS011;13057;50.978;11.034;2022-10-16T07:49:45;1.00;;;0.60;;
25057;SDS011;13057;50.978;11.034;2022-10-16T07:52:11;0.47;;;0.40;;
25057;SDS011;13057;50.978;11.034;2022-10-16T07:54:37;0.65;;;0.50;;
25057;SDS011;13057;50.978;11.034;2022-10-16T07:57:03;1.00;;;0.50;;
25057;SDS011;13057;50.978;11.034;2022-10-16T07:59:28;0.50;;;0.50;;
25057;SDS011;13057;50.978;11.034;2022-10-16T08:01:54;1.13;;;0.80;;
25057;SDS011;13057;50.978;11.034;2022-10-16T08:04:20;2.08;;;0.63;;
25057;SDS011;13057;50.978;11.034;2022-10-16T08:06:46;2.50;;;0.70;;
25057;SDS011;13057;50.978;11.034;2022-10-16T08:09:12;2.03;;;0.50;;
25057;SDS011;13057;50.978;11.034;2022-10-16T08:11:37;0.55;;;0.50;;
25057;SDS011;13057;50.978;11.034;2022-10-16T08:14:03;1.15;;;0.80;;
25057;SDS011;13057;50.978;11.034;2022-10-16T08:16:29;1.48;;;1.05;;
25057;SDS011;13057;50.978;11.034;2022-10-16T08:18:55;0.90;;;0.73;;
25057;SDS011;13057;50.978;11.034;2022-10-16T08:21:21;0.90;;;0.75;;
25057;SDS011;13057;50.978;11.034;2022-10-16T08:23:49;0.88;;;0.70;;
25057;SDS011;13057;50.978;11.034;2022-10-16T08:26:15;1.00;;;0.60;;
25057;SDS011;13057;50.978;11.034;2022-10-16T08:28:41;1.05;;;0.70;;
25057;SDS011;13057;50.978;11.034;2022-10-16T08:31:08;1.55;;;1.10;;
25057;SDS011;13057;50.978;11.034;2022-10-16T08:33:37;1.00;;;0.73;;
25057;SDS011;13057;50.978;11.034;2022-10-16T08:36:05;2.10;;;0.60;;
25057;SDS011;13057;50.978;11.034;2022-10-16T08:38:32;3.60;;;0.80;;
25057;SDS011;13057;50.978;11.034;2022-10-16T08:41:08;1.08;;;0.85;;
25057;SDS011;13057;50.978;11.034;2022-10-16T08:43:55;0.68;;;0.50;;
25057;SDS011;13057;50.978;11.034;2022-10-16T08:46:50;1.77;;;0.52;;
25057;SDS011;13057;50.978;11.034;2022-10-16T08:49:31;0.77;;;0.70;;
25057;SDS011;13057;50.978;11.034;2022-10-16T08:51:57;1.00;;;0.70;;
25057;SDS011;13057;50.978;11.034;2022-10-16T08:54:26;1.08;;;0.60;;
25057;SDS011;13057;50.978;11.034;2022-10-16T08:57:08;0.93;;;0.70;;
25057;SDS011;13057;50.978;11.034;2022-10-16T08:59:37;1.05;;;0.70;;
25057;SDS011;13057;50.978;11.034;2022-10-16T09:02:03;0.80;;;0.55;;
25057;SDS011;13057;50.978;11.034;2022-10-16T09:04:56;1.15;;;0.80;;
25057;SDS011;13057;50.978;11.034;2022-10-16T09:12:58;0.77;;;0.60;;
25057;SDS011;13057;50.978;11.034;2022-10-16T09:15:35;1.05;;;0.65;;
25057;SDS011;13057;50.978;11.034;2022-10-16T09:18:34;1.08;;;0.80;;
25057;SDS011;13057;50.978;11.034;2022-10-16T09:21:15;2.20;;;0.80;;
25057;SDS011;13057;50.978;11.034;2022-10-16T09:23:47;0.98;;;0.63;;
25057;SDS011;13057;50.978;11.034;2022-10-16T09:26:13;1.90;;;0.70;;
25057;SDS011;13057;50.978;11.034;2022-10-16T09:28:41;1.08;;;0.70;;
25057;SDS011;13057;50.978;11.034;2022-10-16T09:31:11;1.50;;;0.63;;
25057;SDS011;13057;50.978;11.034;2022-10-16T09:33:41;1.08;;;0.80;;
25057;SDS011;13057;50.978;11.034;2022-10-16T09:36:08;1.00;;;0.80;;
25057;SDS011;13057;50.978;11.034;2022-10-16T09:38:35;1.25;;;0.90;;
25057;SDS011;13057;50.978;11.034;2022-10-16T09:41:03;1.05;;;0.80;;
25057;SDS011;13057;50.978;11.034;2022-10-16T09:43:47;1.03;;;0.80;;
25057;SDS011;13057;50.978;11.034;2022-10-16T09:46:22;0.80;;;0.70;;
25057;SDS011;13057;50.978;11.034;2022-10-16T09:48:56;0.73;;;0.70;;
25057;SDS011;13057;50.978;11.034;2022-10-16T09:51:26;0.82;;;0.63;;
25057;SDS011;13057;50.978;11.034;2022-10-16T09:54:00;0.65;;;0.60;;
25057;SDS011;13057;50.978;11.034;2022-10-16T09:56:38;0.65;;;0.63;;
25057;SDS011;13057;50.978;11.034;2022-10-16T09:59:10;1.60;;;0.90;;
25057;SDS011;13057;50.978;11.034;2022-10-16T10:01:39;0.90;;;0.70;;
25057;SDS011;13057;50.978;11.034;2022-10-16T10:04:07;1.75;;;1.00;;
25057;SDS011;13057;50.978;11.034;2022-10-16T10:06:35;4.80;;;1.10;;
25057;SDS011;13057;50.978;11.034;2022-10-16T10:09:15;1.10;;;0.90;;
25057;SDS011;13057;50.978;11.034;2022-10-16T10:11:48;0.93;;;0.75;;
25057;SDS011;13057;50.978;11.034;2022-10-16T10:14:17;1.17;;;0.90;;
25057;SDS011;13057;50.978;11.034;2022-10-16T10:17:13;0.90;;;0.80;;
25057;SDS011;13057;50.978;11.034;2022-10-16T10:19:52;1.05;;;0.70;;
25057;SDS011;13057;50.978;11.034;2022-10-16T10:22:23;1.73;;;0.80;;
25057;SDS011;13057;50.978;11.034;2022-10-16T10:24:56;2.15;;;0.70;;
25057;SDS011;13057;50.978;11.034;2022-10-16T10:27:24;0.90;;;0.60;;
25057;SDS011;13057;50.978;11.034;2022-10-16T10:30:08;1.85;;;0.90;;
25057;SDS011;13057;50.978;11.034;2022-10-16T10:32:53;1.75;;;0.70;;
25057;SDS011;13057;50.978;11.034;2022-10-16T10:35:34;0.70;;;0.60;;
25057;SDS011;13057;50.978;11.034;2022-10-16T10:38:19;0.93;;;0.60;;
25057;SDS011;13057;50.978;11.034;2022-10-16T10:41:02;0.80;;;0.80;;
25057;SDS011;13057;50.978;11.034;2022-10-16T10:43:45;1.25;;;0.75;;
25057;SDS011;13057;50.978;11.034;2022-10-16T10:46:23;0.98;;;0.80;;
25057;SDS011;13057;50.978;11.034;2022-10-16T10:49:13;2.08;;;0.70;;
25057;SDS011;13057;50.978;11.034;2022-10-16T10:51:58;1.58;;;0.80;;
25057;SDS011;13057;50.978;11.034;2022-10-16T10:54:40;2.25;;;0.85;;
25057;SDS011;13057;50.978;11.034;2022-10-16T10:57:21;1.75;;;1.10;;
25057;SDS011;13057;50.978;11.034;2022-10-16T10:59:58;2.13;;;1.40;;
25057;SDS011;13057;50.978;11.034;2022-10-16T11:02:36;1.25;;;1.08;;
25057;SDS011;13057;50.978;11.034;2022-10-16T11:05:13;2.28;;;1.10;;
25057;SDS011;13057;50.978;11.034;2022-10-16T11:07:56;1.02;;;0.68;;
25057;SDS011;13057;50.978;11.034;2022-10-16T11:10:30;0.75;;;0.60;;
25057;SDS011;13057;50.978;11.034;2022-10-16T11:13:15;1.33;;;0.82;;
25057;SDS011;13057;50.978;11.034;2022-10-16T11:15:48;1.92;;;1.20;;
25057;SDS011;13057;50.978;11.034;2022-10-16T11:18:20;2.72;;;1.05;;
25057;SDS011;13057;50.978;11.034;2022-10-16T11:20:53;4.15;;;1.63;;
25057;SDS011;13057;50.978;11.034;2022-10-16T11:23:25;2.30;;;1.35;;
25057;SDS011;13057;50.978;11.034;2022-10-16T11:25:56;2.45;;;1.27;;
25057;SDS011;13057;50.978;11.034;2022-10-16T11:28:34;1.90;;;1.20;;
25057;SDS011;13057;50.978;11.034;2022-10-16T11:31:11;2.83;;;1.10;;
25057;SDS011;13057;50.978;11.034;2022-10-16T11:33:45;2.63;;;1.60;;
25057;SDS011;13057;50.978;11.034;2022-10-16T11:38:55;2.38;;;1.70;;
25057;SDS011;13057;50.978;11.034;2022-10-16T11:41:35;1.65;;;1.30;;
25057;SDS011;13057;50.978;11.034;2022-10-16T11:44:14;1.95;;;1.17;;
25057;SDS011;13057;50.978;11.034;2022-10-16T11:47:07;1.70;;;1.10;;
25057;SDS011;13057;50.978;11.034;2022-10-16T11:49:51;2.17;;;1.08;;
25057;SDS011;13057;50.978;11.034;2022-10-16T11:52:24;1.40;;;0.88;;
25057;SDS011;13057;50.978;11.034;2022-10-16T11:54:58;3.72;;;1.50;;
25057;SDS011;13057;50.978;11.034;2022-10-16T11:57:39;3.58;;;1.30;;
25057;SDS011;13057;50.978;11.034;2022-10-16T12:00:19;4.40;;;1.73;;
25057;SDS011;13057;50.978;11.034;2022-10-16T12:02:57;1.08;;;0.98;;
25057;SDS011;13057;50.978;11.034;2022-10-16T12:08:36;1.00;;;0.80;;
25057;SDS011;13057;50.978;11.034;2022-10-16T12:11:07;0.93;;;0.73;;
25057;SDS011;13057;50.978;11.034;2022-10-16T12:13:47;1.25;;;0.90;;
25057;SDS011;13057;50.978;11.034;2022-10-16T12:16:22;1.42;;;1.08;;
25057;SDS011;13057;50.978;11.034;2022-10-16T12:18:48;1.20;;;0.90;;
25057;SDS011;13057;50.978;11.034;2022-10-16T12:21:15;1.88;;;0.90;;
25057;SDS011;13057;50.978;11.034;2022-10-16T12:23:49;1.42;;;1.25;;
25057;SDS011;13057;50.978;11.034;2022-10-16T12:26:25;2.40;;;1.05;;
25057;SDS011;13057;50.978;11.034;2022-10-16T12:28:53;1.55;;;1.05;;
25057;SDS011;13057;50.978;11.034;2022-10-16T12:31:21;1.33;;;1.00;;
25057;SDS011;13057;50.978;11.034;2022-10-16T12:33:55;2.38;;;1.30;;
25057;SDS011;13057;50.978;11.034;2022-10-16T12:36:26;0.98;;;0.88;;
25057;SDS011;13057;50.978;11.034;2022-10-16T12:38:56;1.00;;;0.80;;
25057;SDS011;13057;50.978;11.034;2022-10-16T12:41:32;1.50;;;0.90;;
25057;SDS011;13057;50.978;11.034;2022-10-16T12:44:00;1.77;;;0.80;;
25057;SDS011;13057;50.978;11.034;2022-10-16T12:46:37;1.63;;;1.17;;
25057;SDS011;13057;50.978;11.034;2022-10-16T12:49:06;1.60;;;0.90;;
25057;SDS011;13057;50.978;11.034;2022-10-16T12:51:52;1.02;;;0.93;;
25057;SDS011;13057;50.978;11.034;2022-10-16T12:54:19;1.92;;;1.10;;
25057;SDS011;13057;50.978;11.034;2022-10-16T12:59:35;0.90;;;0.70;;
25057;SDS011;13057;50.978;11.034;2022-10-16T13:02:18;2.03;;;1.05;;
25057;SDS011;13057;50.978;11.034;2022-10-16T13:05:13;1.70;;;0.90;;
25057;SDS011;13057;50.978;11.034;2022-10-16T13:07:58;0.80;;;0.70;;
25057;SDS011;13057;50.978;11.034;2022-10-16T13:10:40;1.42;;;1.20;;
25057;SDS011;13057;50.978;11.034;2022-10-16T13:13:29;2.00;;;1.10;;
25057;SDS011;13057;50.978;11.034;2022-10-16T13:16:18;1.10;;;0.80;;
25057;SDS011;13057;50.978;11.034;2022-10-16T13:19:00;0.70;;;0.60;;
25057;SDS011;13057;50.978;11.034;2022-10-16T13:21:49;0.95;;;0.80;;
25057;SDS011;13057;50.978;11.034;2022-10-16T13:24:26;1.65;;;0.88;;
25057;SDS011;13057;50.978;11.034;2022-10-16T13:27:07;2.10;;;0.88;;
25057;SDS011;13057;50.978;11.034;2022-10-16T13:30:07;1.40;;;0.90;;
25057;SDS011;13057;50.978;11.034;2022-10-16T13:32:37;0.80;;;0.80;;
25057;SDS011;13057;50.978;11.034;2022-10-16T13:35:20;0.70;;;0.70;;
25057;SDS011;13057;50.978;11.034;2022-10-16T13:38:02;1.13;;;0.80;;
25057;SDS011;13057;50.978;11.034;2022-10-16T13:40:31;0.60;;;0.60;;
25057;SDS011;13057;50.978;11.034;2022-10-16T13:42:59;1.27;;;0.80;;
25057;SDS011;13057;50.978;11.034;2022-10-16T13:45:26;0.68;;;0.68;;
25057;SDS011;13057;50.978;11.034;2022-10-16T13:48:03;1.63;;;0.88;;
25057;SDS011;13057;50.978;11.034;2022-10-16T13:50:30;3.08;;;0.52;;
25057;SDS011;13057;50.978;11.034;2022-10-16T13:53:04;3.00;;;0.63;;
25057;SDS011;13057;50.978;11.034;2022-10-16T13:55:31;0.60;;;0.57;;
25057;SDS011;13057;50.978;11.034;2022-10-16T13:58:06;1.42;;;0.80;;
25057;SDS011;13057;50.978;11.034;2022-10-16T14:00:34;0.90;;;0.70;;
25057;SDS011;13057;50.978;11.034;2022-10-16T14:03:01;0.50;;;0.50;;
25057;SDS011;13057;50.978;11.034;2022-10-16T14:05:30;0.68;;;0.60;;
25057;SDS011;13057;50.978;11.034;2022-10-16T14:07:57;0.77;;;0.68;;
25057;SDS011;13057;50.978;11.034;2022-10-16T14:10:25;0.57;;;0.50;;
25057;SDS011;13057;50.978;11.034;2022-10-16T14:12:57;0.60;;;0.60;;
25057;SDS011;13057;50.978;11.034;2022-10-16T14:15:25;1.10;;;0.90;;
25057;SDS011;13057;50.978;11.034;2022-10-16T14:17:51;1.90;;;1.02;;
25057;SDS011;13057;50.978;11.034;2022-10-16T14:20:18;1.58;;;0.60;;
25057;SDS011;13057;50.978;11.034;2022-10-16T14:22:48;0.70;;;0.68;;
25057;SDS011;13057;50.978;11.034;2022-10-16T14:25:28;1.55;;;1.00;;
25057;SDS011;13057;50.978;11.034;2022-10-16T14:28:01;0.70;;;0.60;;
25057;SDS011;13057;50.978;11.034;2022-10-16T14:30:29;2.85;;;0.90;;
25057;SDS011;13057;50.978;11.034;2022-10-16T14:32:58;0.82;;;0.60;;
25057;SDS011;13057;50.978;11.034;2022-10-16T14:35:32;0.95;;;0.70;;
25057;SDS011;13057;50.978;11.034;2022-10-16T14:38:00;2.50;;;0.80;;
25057;SDS011;13057;50.978;11.034;2022-10-16T14:40:31;1.42;;;0.70;;
25057;SDS011;13057;50.978;11.034;2022-10-16T14:42:58;0.80;;;0.70;;
25057;SDS011;13057;50.978;11.034;2022-10-16T14:45:29;1.27;;;0.98;;
25057;SDS011;13057;50.978;11.034;2022-10-16T14:47:58;1.05;;;0.80;;
25057;SDS011;13057;50.978;11.034;2022-10-16T14:50:27;1.13;;;1.00;;
25057;SDS011;13057;50.978;11.034;2022-10-16T14:52:54;1.27;;;0.80;;
25057;SDS011;13057;50.978;11.034;2022-10-16T14:55:20;1.50;;;1.00;;
25057;SDS011;13057;50.978;11.034;2022-10-16T14:57:46;1.27;;;0.70;;
25057;SDS011;13057;50.978;11.034;2022-10-16T15:00:17;1.10;;;0.73;;
25057;SDS011;13057;50.978;11.034;2022-10-16T15:02:47;0.80;;;0.60;;
25057;SDS011;13057;50.978;11.034;2022-10-16T15:05:19;1.33;;;0.80;;
25057;SDS011;13057;50.978;11.034;2022-10-16T15:07:47;1.25;;;0.90;;
25057;SDS011;13057;50.978;11.034;2022-10-16T15:10:14;0.98;;;0.70;;
25057;SDS011;13057;50.978;11.034;2022-10-16T15:12:41;0.70;;;0.65;;